Список аэропортов
Фактическая погода:

26 апреля, 12:00
Температура: +11°C (+8.8*)
Ветер: западный 5 м/с
Давление: *754 мм
Без существ. явл.
Время (МСК)Темп. СВетерВлажностьДавлениеОблачностьОсадки
08:00+7Ю, 2 м/с47%1007 гПаясно
09:00+10Ю, 3 м/с41%1007 гПаясно
10:00+10ЮЗ, 5 м/с32%1007 гПаясно
11:00+11ЮЗ, 4 м/с32%1006 гПаясно
12:00+11ЮЗ, 4 м/с33%1006 гПаясно
13:00+11ЮЗ, 4 м/с33%1006 гПаясно
14:00+11Ю, 4 м/с34%1006 гПамалооблачно
15:00+10Ю, 4 м/с37%1005 гПамалооблачно
16:00+9Ю, 3 м/с43%1005 гПаоблачно
17:00+8Ю, 2 м/с50%1005 гПас прояснениями
18:00+5Ю, 2 м/с59%1006 гПаоблачно
19:00+4ЮВ, 2 м/с66%1006 гПас прояснениями
20:00+2ЮВ, 2 м/с74%1006 гПамалооблачно
21:00+1ЮВ, 2 м/с79%1006 гПас прояснениями
22:00+1Ю, 2 м/с77%1005 гПаоблачно
23:00+2Ю, 2 м/с75%1005 гПаоблачно
27 апреля
00:00+2ЮВ, 2 м/с75%1005 гПаоблачно
01:00+2ЮВ, 3 м/с76%1005 гПаоблачно
02:00+1ЮВ, 2 м/с76%1005 гПаоблачно
03:00+1ЮВ, 2 м/с80%1005 гПаоблачно
04:00+1ЮВ, 2 м/с79%1004 гПаоблачно
05:00+2ЮВ, 2 м/с76%1004 гПаоблачно
06:00+3ЮВ, 3 м/с69%1004 гПаоблачно
07:00+4ЮВ, 3 м/с66%1003 гПаоблачно
08:00+6Ю, 3 м/с64%1003 гПаоблачно
09:00+7Ю, 3 м/с63%1004 гПаоблачно
10:00+7Ю, 3 м/с64%1004 гПаоблачно
11:00+7Ю, 3 м/с65%1004 гПаоблачно
12:00+7Ю, 3 м/с66%1004 гПаоблачно
13:00+7Ю, 3 м/с69%1004 гПаоблачно
14:00+8Ю, 3 м/с68%1004 гПас прояснениями
15:00+8Ю, 2 м/с68%1005 гПаоблачно
16:00+7Ю, 2 м/с72%1005 гПаоблачно
17:00+6ЮВ, 1 м/с80%1005 гПаоблачно
18:00+5В, 1 м/с88%1005 гПаоблачно
19:00+4В, 1 м/с94%1005 гПаоблачно
20:00+3ЮВ, 1 м/с98%1005 гПаоблачно
21:00+2ЮВ, 1 м/с97%1005 гПаоблачно
22:00+1ЮВ, 1 м/с98%1005 гПас прояснениями
23:000В, 1 м/с99%1005 гПаоблачно
28 апреля
00:00-0В, 1 м/с99%1004 гПаоблачно
01:00-0В, 1 м/с98%1004 гПаоблачно
02:00-0В, 1 м/с98%1004 гПаоблачно
03:00-0В, 1 м/с99%1003 гПаоблачносл. снег
04:000В, 1 м/с99%1003 гПаоблачносл. снег
05:00+1ЮВ, 1 м/с100%1003 гПаоблачноснег
06:00+2Штиль 99%1003 гПаоблачноснег
07:00+4В, 1 м/с99%1002 гПаоблачнодождь
08:00+5В, 1 м/с99%1002 гПаоблачнодождь